Stations météo

réclame
Mon MeteoGroup
Lons-Le-Saunier, France (7390): Température de l'air & dewpoint: 23.01.2020 01:00:00 - 29.01.2020 01:00:00 (CET)Lons-Le-Saunier, France (7390): Vitesse du vent & gusts: 23.01.2020 01:00:00 - 29.01.2020 01:00:00 (CET)Lons-Le-Saunier, France (7390): Direction du vent: 23.01.2020 01:00:00 - 29.01.2020 01:00:00 (CET)Lons-Le-Saunier, France (7390): Quantités de précipitations: 23.01.2020 01:00:00 - 29.01.2020 01:00:00 (CET)
Date & Time tt [°C] td [°C] ff [km/h] ff [knt] fx [km/h] fx [knt] dd rr [mm]
29.01.2020 01:00:00 - - - - - - - -
29.01.2020 00:00:00 - - - - - - - -
28.01.2020 23:00:00 - - - - - - - -
28.01.2020 22:00:00 6,5 2,0 29 16 44 24 SSW 0,0
28.01.2020 21:00:00 6,0 1,7 21 11 37 20 S 0,0
28.01.2020 20:00:00 6,4 1,7 18 10 37 20 SSW 0,0
28.01.2020 19:00:00 6,1 2,2 18 10 29 16 SSW 0,0
28.01.2020 18:00:00 6,0 2,3 18 10 34 18 SSW 0,0
28.01.2020 17:00:00 - - - - - - - -
28.01.2020 16:00:00 - - - - - - - -
28.01.2020 15:00:00 - - - - - - - -
28.01.2020 14:00:00 - - - - - - - -
28.01.2020 13:00:00 - - - - - - - -
28.01.2020 12:00:00 - - - - - - - -
28.01.2020 11:00:00 6,4 3,9 18 10 35 19 SW 0,0
28.01.2020 10:00:00 6,1 3,9 24 13 44 24 SW 0,0
28.01.2020 09:00:00 - - - - - - - -
28.01.2020 08:00:00 - - - - - - - -
28.01.2020 07:00:00 - - - - - - - -
28.01.2020 06:00:00 - - - - - - - -
28.01.2020 05:00:00 - - - - - - - -
28.01.2020 04:00:00 - - - - - - - -
28.01.2020 03:00:00 - - - - - - - -
28.01.2020 02:00:00 8,5 5,9 26 14 55 30 SSW 0,6
28.01.2020 01:00:00 - - - - - - - -
28.01.2020 00:00:00 - - - - - - - -
27.01.2020 23:00:00 - - - - - - - -
27.01.2020 22:00:00 8,8 5,5 29 16 59 32 S 0,2
27.01.2020 21:00:00 8,4 5,9 29 16 55 30 S 0,2
27.01.2020 20:00:00 - - - - - - - -
27.01.2020 19:00:00 - - - - - - - -
27.01.2020 18:00:00 7,8 4,7 26 14 48 26 S 0,8
27.01.2020 17:00:00 - - - - - - - -
27.01.2020 16:00:00 - - - - - - - -
27.01.2020 15:00:00 8,9 4,5 18 10 39 21 SW 0,0
27.01.2020 14:00:00 9,5 4,1 26 14 54 29 SSW 0,0
27.01.2020 13:00:00 9,6 4,6 16 9 44 24 SSW -
27.01.2020 12:00:00 9,4 4,0 28 15 42 23 S 0,0
27.01.2020 11:00:00 8,4 5,3 15 8 28 15 SSW 0,0
27.01.2020 10:00:00 7,3 4,4 13 7 22 12 SSW 0,0
27.01.2020 09:00:00 6,2 3,5 9 5 18 10 S 0,0
27.01.2020 08:00:00 6,2 3,2 8 4 18 10 SSE 0,0
27.01.2020 07:00:00 6,3 4,0 11 6 21 11 SSE -
27.01.2020 06:00:00 5,6 4,2 11 6 18 10 SE 0,0
27.01.2020 05:00:00 6,2 4,5 9 5 26 14 SSE 0,0
27.01.2020 04:00:00 6,2 5,0 11 6 21 11 SE 0,0
27.01.2020 03:00:00 6,6 5,4 9 5 13 7 SSE 0,0
27.01.2020 02:00:00 6,4 5,5 9 5 16 9 SSE 0,0
27.01.2020 01:00:00 6,5 5,4 11 6 18 10 SSE -
27.01.2020 00:00:00 7,0 6,1 8 4 15 8 SE 0,0
26.01.2020 23:00:00 6,9 6,8 8 4 16 9 S 0,0
26.01.2020 22:00:00 6,9 6,9 11 6 18 10 SSW 2,0
26.01.2020 21:00:00 6,9 6,3 15 8 22 12 SW 1,0
26.01.2020 20:00:00 7,8 5,9 5 3 11 6 SW 0,2
26.01.2020 19:00:00 7,9 5,9 9 5 13 7 S -
26.01.2020 18:00:00 7,7 6,3 8 4 11 6 SE 0,0
26.01.2020 17:00:00 8,0 6,6 5 3 9 5 S 0,0
26.01.2020 16:00:00 7,9 6,8 5 3 22 12 S 0,2
26.01.2020 15:00:00 8,5 6,5 16 9 28 15 SSW 0,0
26.01.2020 14:00:00 9,7 4,9 16 9 28 15 S 0,0
26.01.2020 13:00:00 8,9 6,0 8 4 13 7 SSE -
26.01.2020 12:00:00 7,9 5,9 5 3 13 7 SSW 0,0
26.01.2020 11:00:00 7,3 5,4 9 5 13 7 SW 0,0
26.01.2020 10:00:00 8,4 5,1 8 4 15 8 S 0,0
26.01.2020 09:00:00 7,8 4,9 11 6 15 8 SSE 0,0
26.01.2020 08:00:00 6,3 4,9 8 4 11 6 SSE 0,0
26.01.2020 07:00:00 5,8 4,4 5 3 9 5 SSE -
26.01.2020 06:00:00 6,1 4,9 5 3 9 5 SSW 0,0
26.01.2020 05:00:00 6,2 4,7 8 4 9 5 SSW 0,0
26.01.2020 04:00:00 7,4 4,2 8 4 13 7 SSW 0,0
26.01.2020 03:00:00 7,5 4,1 8 4 13 7 SSE 0,0
26.01.2020 02:00:00 7,6 3,8 9 5 22 12 S 0,0
26.01.2020 01:00:00 8,0 4,2 13 7 22 12 SSE -
26.01.2020 00:00:00 7,7 3,9 13 7 16 9 SE 0,0
25.01.2020 23:00:00 8,2 4,4 4 2 15 8 SSE 0,0
25.01.2020 22:00:00 7,8 4,4 11 6 22 12 SE 0,0
25.01.2020 21:00:00 7,6 4,2 11 6 18 10 SE 0,0
25.01.2020 20:00:00 7,9 4,5 11 6 15 8 ESE 0,0
25.01.2020 19:00:00 8,4 4,2 9 5 15 8 ESE -
25.01.2020 18:00:00 7,9 4,1 8 4 11 6 E 0,0
25.01.2020 17:00:00 8,6 4,2 8 4 9 5 ENE 0,0
25.01.2020 16:00:00 8,8 4,4 5 3 13 7 WSW 0,0
25.01.2020 15:00:00 10,5 4,2 0 0 9 5 N 0,0
25.01.2020 14:00:00 10,4 4,1 2 1 5 3 WNW 0,0
25.01.2020 13:00:00 8,3 4,9 4 2 11 6 SW -
25.01.2020 12:00:00 6,2 3,7 8 4 13 7 WSW 0,0
25.01.2020 11:00:00 5,4 4,0 4 2 9 5 WNW 0,0
25.01.2020 10:00:00 4,4 3,5 8 4 9 5 N 0,0
25.01.2020 09:00:00 2,7 2,3 8 4 9 5 ENE 0,0
25.01.2020 08:00:00 1,2 1,1 4 2 8 4 SE 0,0
25.01.2020 07:00:00 0,9 0,8 5 3 9 5 SW -
25.01.2020 06:00:00 1,1 1,0 8 4 11 6 NW 0,0
25.01.2020 05:00:00 2,1 2,0 11 6 13 7 SE 0,0
25.01.2020 04:00:00 1,0 0,9 4 2 8 4 SE 0,0
25.01.2020 03:00:00 1,2 1,2 0 0 5 3 N 0,0
25.01.2020 02:00:00 1,1 1,0 0 0 11 6 N 0,0
25.01.2020 01:00:00 1,5 1,2 8 4 9 5 NW -
25.01.2020 00:00:00 3,9 2,7 0 0 11 6 N 0,0
24.01.2020 23:00:00 3,8 2,3 8 4 11 6 E 0,0
24.01.2020 22:00:00 3,1 2,2 8 4 9 5 ESE 0,0
24.01.2020 21:00:00 2,7 2,0 4 2 8 4 E 0,0
24.01.2020 20:00:00 2,8 2,1 2 1 8 4 NW 0,0
24.01.2020 19:00:00 3,1 2,1 8 4 11 6 N -
24.01.2020 18:00:00 3,5 2,6 4 2 8 4 W 0,0
24.01.2020 17:00:00 3,8 2,9 5 3 8 4 W 0,0
24.01.2020 16:00:00 4,4 3,4 4 2 5 3 NNE 0,0
24.01.2020 15:00:00 3,9 3,2 0 0 5 3 N 0,0
24.01.2020 14:00:00 2,8 2,7 2 1 8 4 ENE 0,0
24.01.2020 13:00:00 2,4 2,3 5 3 13 7 WNW -
24.01.2020 12:00:00 2,5 2,5 0 0 5 3 N 0,0
24.01.2020 11:00:00 -0,4 -0,4 4 2 8 4 SSE 0,0
24.01.2020 10:00:00 -2,2 -2,2 4 2 13 7 SE 0,0
24.01.2020 09:00:00 -1,9 -2,0 9 5 16 9 W 0,0
24.01.2020 08:00:00 -0,6 -0,6 8 4 - - ESE 0,0
24.01.2020 07:00:00 -2,9 -3,0 - - - - - -
24.01.2020 06:00:00 -3,6 -3,7 4 2 8 4 NNW 0,0
24.01.2020 05:00:00 -3,6 -3,7 2 1 8 4 SE 0,0
24.01.2020 04:00:00 -3,5 -3,6 4 2 9 5 SW 0,0
24.01.2020 03:00:00 -3,8 -3,9 4 2 9 5 NE 0,0
24.01.2020 02:00:00 -3,4 -3,5 4 2 5 3 W 0,0
24.01.2020 01:00:00 -3,1 -3,2 2 1 9 5 N -
24.01.2020 00:00:00 -3,2 -3,2 5 3 13 7 N 0,0
23.01.2020 23:00:00 -2,8 -2,8 4 2 8 4 SE 0,0
23.01.2020 22:00:00 -2,6 -2,6 2 1 16 9 W 0,0
23.01.2020 21:00:00 -2,1 -2,1 16 9 21 11 NNE 0,0
23.01.2020 20:00:00 -1,7 -1,7 4 2 9 5 SE 0,0
23.01.2020 19:00:00 -1,7 -1,7 4 2 8 4 ESE -
23.01.2020 18:00:00 -1,7 -1,7 0 0 5 3 N 0,0
23.01.2020 17:00:00 -1,5 -1,5 0 0 13 7 N 0,0
23.01.2020 16:00:00 -1,7 -1,7 0 0 8 4 N 0,0
23.01.2020 15:00:00 -1,6 -1,6 0 0 22 12 N 0,0
23.01.2020 14:00:00 -2,0 -2,0 4 2 11 6 ESE 0,0
23.01.2020 13:00:00 -2,4 -2,4 8 4 13 7 SW -
23.01.2020 12:00:00 -2,4 -2,4 5 3 11 6 NNE 0,0
23.01.2020 11:00:00 -2,5 -2,5 5 3 13 7 NW 0,0
23.01.2020 10:00:00 -2,7 -2,7 2 1 8 4 ESE 0,0
23.01.2020 09:00:00 -2,8 -2,8 5 3 11 6 S 0,0
23.01.2020 08:00:00 -2,6 -2,6 2 1 8 4 SE 0,0
23.01.2020 07:00:00 -2,7 -2,7 0 0 13 7 N -
23.01.2020 06:00:00 -2,8 -2,8 8 4 13 7 S 0,0
23.01.2020 05:00:00 -2,8 -2,8 9 5 13 7 SW 0,0
23.01.2020 04:00:00 -2,8 -2,8 4 2 9 5 SW 0,0
23.01.2020 03:00:00 -2,9 -3,0 4 2 9 5 SW 0,0
23.01.2020 02:00:00 -2,9 -3,0 8 4 11 6 N 0,0
23.01.2020 01:00:00 -2,6 -2,9 8 4 11 6 NNW -

tt = Température de l'air
td = dewpoint
ff = Vitesse du vent
fx = gusts
dd = Direction du vent
rr = Quantités de précipitations

stations d'obs. à proximité